Kenema Airport

Jump to: basic info | weather | comments

Related pages: nearby airports | nearby navaids | notams | map

Basic information (top)

Codes: KEN GFKE
Location: lon 7.891290, lat -11.176600, elev 485 ft / 148 m msl
Status: medium_airport
Scheduled airline service: yes
Links: Wikipedia Mobile

Weather (top)

Current conditions for Roberts International Airport 111nm (205km) SSE (rec'd 2014/11/28 20:30Z):

GLRB 282030Z 00000KT 9999 BKN014 FEW025 CB 27/24 Q1011 RMK CB-E

Airport forecast for Roberts International Airport 111nm (205km) SSE (rec'd 2014/11/28 18:54Z):

TAF GLRB 281600Z 2818/2924 22009KT 9999 SCT016 
      BECMG 2820/2822 00000KT 9999 SCT015 FEW024CB 
      TEMPO 2823/2904 VRB03KT 8000 SCT013 
      BECMG 2905/2907 07004KT 7000

Latest comments (top)

No comments yet for Kenema Airport

More... (top)

See also NOTAMs and nearby airports and navaids, or visit the Kenema Airport page at the main OurAirports website..